createdAt,value
2023-02-11T00:01:25.120Z,100.00
2023-02-11T00:03:53.452Z,100.00
2023-02-11T00:06:21.076Z,100.00
2023-02-11T00:08:48.713Z,100.00
2023-02-11T00:11:18.049Z,100.00
2023-02-11T00:13:48.159Z,100.00
2023-02-11T00:16:17.830Z,100.00
2023-02-11T00:18:45.690Z,100.00
2023-02-11T00:21:15.785Z,100.00
2023-02-11T00:23:43.567Z,100.00
2023-02-11T00:26:15.019Z,100.00
2023-02-11T00:28:43.981Z,100.00
2023-02-11T00:31:13.875Z,100.00
2023-02-11T00:33:41.820Z,100.00
2023-02-11T00:36:12.862Z,100.00
2023-02-11T00:38:40.652Z,100.00
2023-02-11T00:41:08.349Z,100.00
2023-02-11T00:43:36.433Z,100.00
2023-02-11T00:46:04.450Z,100.00
2023-02-11T00:48:33.793Z,100.00
2023-02-11T00:51:01.774Z,100.00
2023-02-11T00:53:29.463Z,100.00
2023-02-11T00:55:57.148Z,100.00
2023-02-11T00:58:26.661Z,100.00
2023-02-11T01:00:56.073Z,100.00
2023-02-11T01:03:25.503Z,100.00
2023-02-11T01:05:54.595Z,100.00
2023-02-11T01:08:22.553Z,100.00
2023-02-11T01:10:55.879Z,100.00
2023-02-11T01:13:24.332Z,100.00
2023-02-11T01:15:52.496Z,100.00
2023-02-11T01:18:20.572Z,100.00
2023-02-11T01:20:50.358Z,100.00
2023-02-11T01:23:19.506Z,100.00
2023-02-11T01:25:48.303Z,100.00
2023-02-11T01:28:18.251Z,100.00
2023-02-11T01:30:46.082Z,100.00
2023-02-11T01:33:13.855Z,100.00
2023-02-11T01:35:42.556Z,100.00
2023-02-11T01:38:16.529Z,100.00
2023-02-11T01:40:49.942Z,100.00
2023-02-11T01:43:17.651Z,100.00
2023-02-11T01:45:59.366Z,100.00
2023-02-11T01:48:32.058Z,100.00
2023-02-11T01:51:05.093Z,100.00
2023-02-11T01:53:52.455Z,100.00
2023-02-11T01:56:39.426Z,100.00
2023-02-11T01:59:12.587Z,100.00
2023-02-11T02:01:46.903Z,100.00
2023-02-11T02:04:19.829Z,98.41
2023-02-11T02:06:51.547Z,99.33
2023-02-11T02:09:23.549Z,100.00
2023-02-11T02:11:52.999Z,100.00
2023-02-11T02:14:21.401Z,100.00
2023-02-11T02:16:49.199Z,100.00
2023-02-11T02:19:49.813Z,100.00
2023-02-11T02:22:38.195Z,99.89
2023-02-11T02:25:29.348Z,99.13
2023-02-11T02:28:13.899Z,99.85
2023-02-11T02:31:04.223Z,100.00
2023-02-11T02:33:43.205Z,99.40
2023-02-11T02:36:18.602Z,98.76
2023-02-11T02:38:52.167Z,100.00
2023-02-11T02:41:22.307Z,100.00
2023-02-11T02:43:51.994Z,99.57
2023-02-11T02:46:22.493Z,100.00
2023-02-11T02:48:53.464Z,100.00
2023-02-11T02:51:56.368Z,100.00
2023-02-11T02:54:54.690Z,100.00
2023-02-11T02:57:31.749Z,100.00
2023-02-11T03:00:13.197Z,100.00
2023-02-11T03:02:49.883Z,100.00
2023-02-11T03:05:24.412Z,100.00
2023-02-11T03:07:59.625Z,100.00
2023-02-11T03:10:31.321Z,100.00
2023-02-11T03:12:59.671Z,100.00
2023-02-11T03:15:32.615Z,100.00
2023-02-11T03:18:02.877Z,100.00
2023-02-11T03:20:37.419Z,100.00
2023-02-11T03:23:12.532Z,100.00
2023-02-11T03:25:46.654Z,100.00
2023-02-11T03:28:19.021Z,100.00
2023-02-11T03:30:54.540Z,100.00
2023-02-11T03:33:28.373Z,100.00
2023-02-11T03:36:01.553Z,100.00
2023-02-11T03:38:34.029Z,100.00
2023-02-11T03:41:05.781Z,100.00
2023-02-11T03:43:37.216Z,100.00
2023-02-11T03:46:06.042Z,100.00
2023-02-11T03:48:38.541Z,100.00
2023-02-11T03:51:10.437Z,100.00
2023-02-11T03:53:42.251Z,100.00
2023-02-11T03:56:14.147Z,100.00
2023-02-11T03:58:41.841Z,100.00
2023-02-11T04:01:09.926Z,100.00
2023-02-11T04:03:37.625Z,100.00
2023-02-11T04:06:07.354Z,100.00
2023-02-11T04:08:35.108Z,100.00
2023-02-11T04:11:02.796Z,100.00
2023-02-11T04:13:30.577Z,100.00
2023-02-11T04:15:58.275Z,100.00
2023-02-11T04:18:25.907Z,100.00
2023-02-11T04:20:53.526Z,100.00
2023-02-11T04:23:22.560Z,100.00
2023-02-11T04:25:51.219Z,100.00
2023-02-11T04:28:19.141Z,100.00
2023-02-11T04:30:47.294Z,100.00
2023-02-11T04:33:14.885Z,100.00
2023-02-11T04:35:42.588Z,100.00
2023-02-11T04:38:10.277Z,100.00
2023-02-11T04:40:39.393Z,100.00
2023-02-11T04:43:07.317Z,100.00
2023-02-11T04:45:35.091Z,100.00
2023-02-11T04:48:03.058Z,100.00
2023-02-11T04:50:31.310Z,100.00
2023-02-11T04:52:59.146Z,100.00
2023-02-11T04:55:27.000Z,100.00
2023-02-11T04:57:56.254Z,100.00
2023-02-11T05:00:23.965Z,100.00
2023-02-11T05:02:52.012Z,100.00
2023-02-11T05:05:19.863Z,100.00
2023-02-11T05:07:48.286Z,100.00
2023-02-11T05:10:16.233Z,100.00
2023-02-11T05:12:43.841Z,100.00
2023-02-11T05:15:12.869Z,100.00
2023-02-11T05:17:41.043Z,100.00
2023-02-11T05:20:09.818Z,100.00
2023-02-11T05:22:37.506Z,100.00
2023-02-11T05:25:05.618Z,100.00
2023-02-11T05:27:33.318Z,100.00
2023-02-11T05:30:00.996Z,100.00
2023-02-11T05:32:30.017Z,100.00
2023-02-11T05:34:57.650Z,100.00
2023-02-11T05:37:25.397Z,100.00
2023-02-11T05:39:53.177Z,100.00
2023-02-11T05:42:20.817Z,100.00
2023-02-11T05:44:50.529Z,100.00
2023-02-11T05:47:18.402Z,100.00
2023-02-11T05:49:47.417Z,100.00
2023-02-11T05:52:15.062Z,100.00
2023-02-11T05:54:43.238Z,100.00
2023-02-11T05:57:10.952Z,100.00
2023-02-11T05:59:38.772Z,100.00
2023-02-11T06:02:07.904Z,100.00
2023-02-11T06:04:35.762Z,100.00
2023-02-11T06:07:05.094Z,100.00
2023-02-11T06:09:32.816Z,100.00
2023-02-11T06:12:00.475Z,100.00
2023-02-11T06:14:28.278Z,100.00
2023-02-11T06:16:55.864Z,100.00
2023-02-11T06:19:23.517Z,100.00
2023-02-11T06:21:51.186Z,100.00
2023-02-11T06:24:38.503Z,100.00
2023-02-11T06:27:07.964Z,100.00
2023-02-11T06:29:35.819Z,100.00
2023-02-11T06:32:03.597Z,100.00
2023-02-11T06:34:31.506Z,100.00
2023-02-11T06:36:59.122Z,100.00
2023-02-11T06:39:28.210Z,100.00
2023-02-11T06:41:56.064Z,100.00
2023-02-11T06:44:23.774Z,100.00
2023-02-11T06:46:51.495Z,100.00
2023-02-11T06:49:19.146Z,100.00
2023-02-11T06:51:47.027Z,100.00
2023-02-11T06:54:14.792Z,100.00
2023-02-11T06:56:43.824Z,100.00
2023-02-11T06:59:15.945Z,100.00
2023-02-11T07:01:43.733Z,100.00
2023-02-11T07:04:11.684Z,100.00
2023-02-11T07:06:39.305Z,100.00
2023-02-11T07:09:07.000Z,100.00
2023-02-11T07:11:35.056Z,100.00
2023-02-11T07:14:06.758Z,100.00
2023-02-11T07:16:36.120Z,100.00
2023-02-11T07:19:03.928Z,100.00
2023-02-11T07:21:31.863Z,100.00
2023-02-11T07:23:59.614Z,100.00
2023-02-11T07:26:27.262Z,100.00
2023-02-11T07:28:55.164Z,100.00
2023-02-11T07:31:25.980Z,100.00
2023-02-11T07:33:54.615Z,100.00
2023-02-11T07:36:23.116Z,100.00
2023-02-11T07:38:50.985Z,100.00
2023-02-11T07:41:20.906Z,100.00
2023-02-11T07:43:48.744Z,100.00
2023-02-11T07:46:18.864Z,100.00
2023-02-11T07:48:48.366Z,100.00
2023-02-11T07:51:18.090Z,100.00
2023-02-11T07:53:46.750Z,100.00
2023-02-11T07:56:15.892Z,100.00
2023-02-11T07:58:43.771Z,99.81
2023-02-11T08:01:13.614Z,98.27
2023-02-11T08:03:42.657Z,97.72
2023-02-11T08:06:13.933Z,98.65
2023-02-11T08:08:42.171Z,97.64
2023-02-11T08:11:11.331Z,97.51
2023-02-11T08:13:39.513Z,95.47
2023-02-11T08:16:08.283Z,96.54
2023-02-11T08:18:36.750Z,95.45
2023-02-11T08:21:08.459Z,92.68
2023-02-11T08:23:39.210Z,93.31
2023-02-11T08:26:08.698Z,92.43
2023-02-11T08:28:37.359Z,90.29
2023-02-11T08:31:07.575Z,91.45
2023-02-11T08:33:35.630Z,90.07
2023-02-11T08:36:09.791Z,90.50
2023-02-11T08:38:39.053Z,89.84
2023-02-11T08:41:06.809Z,93.50
2023-02-11T08:43:34.461Z,94.70
2023-02-11T08:46:02.886Z,94.67
2023-02-11T08:48:31.392Z,93.75
2023-02-11T08:50:59.045Z,92.91
2023-02-11T08:53:26.768Z,92.41
2023-02-11T08:55:56.570Z,92.00
2023-02-11T08:58:24.255Z,90.31
2023-02-11T09:00:52.238Z,92.37
2023-02-11T09:03:20.098Z,91.27
2023-02-11T09:05:49.813Z,92.30
2023-02-11T09:08:18.065Z,90.36
2023-02-11T09:10:45.740Z,88.39
2023-02-11T09:13:14.795Z,87.71
2023-02-11T09:15:46.251Z,87.38
2023-02-11T09:18:13.872Z,86.06
2023-02-11T09:20:41.538Z,85.72
2023-02-11T09:23:09.440Z,84.99
2023-02-11T09:25:40.142Z,85.22
2023-02-11T09:28:08.076Z,85.40
2023-02-11T09:30:37.389Z,86.36
2023-02-11T09:33:05.565Z,84.33
2023-02-11T09:35:34.656Z,86.75
2023-02-11T09:38:02.307Z,86.05
2023-02-11T09:40:30.019Z,88.08
2023-02-11T09:43:08.801Z,86.92
2023-02-11T09:45:38.311Z,87.60
2023-02-11T09:48:13.625Z,86.19
2023-02-11T09:50:44.866Z,86.94
2023-02-11T09:53:18.807Z,85.15
2023-02-11T09:55:49.041Z,86.23
2023-02-11T09:58:21.439Z,84.96
2023-02-11T10:00:55.626Z,85.38
2023-02-11T10:03:48.136Z,85.68
2023-02-11T10:06:38.132Z,84.40
2023-02-11T10:09:20.704Z,81.71
2023-02-11T10:11:59.131Z,81.77
2023-02-11T10:14:47.166Z,100.00
2023-02-11T10:17:23.531Z,97.59
2023-02-11T10:20:04.086Z,82.03
2023-02-11T10:22:36.086Z,93.81
2023-02-11T10:25:18.069Z,73.12
2023-02-11T10:27:46.024Z,69.86
2023-02-11T10:30:23.197Z,71.03
2023-02-11T10:32:57.123Z,70.68
2023-02-11T10:35:27.216Z,70.15
2023-02-11T10:37:55.788Z,70.91
2023-02-11T10:40:25.686Z,79.47
2023-02-11T10:42:55.968Z,69.33
2023-02-11T10:45:29.080Z,73.25
2023-02-11T10:47:59.438Z,73.98
2023-02-11T10:50:28.982Z,75.91
2023-02-11T10:53:13.247Z,76.29
2023-02-11T10:55:51.342Z,77.11
2023-02-11T10:58:26.109Z,77.50
2023-02-11T11:00:56.423Z,78.48
2023-02-11T11:03:28.237Z,76.26
2023-02-11T11:05:58.822Z,77.61
2023-02-11T11:08:41.085Z,77.33
2023-02-11T11:11:11.298Z,75.29
2023-02-11T11:13:40.488Z,76.48
2023-02-11T11:16:24.609Z,77.02
2023-02-11T11:18:55.069Z,76.96
2023-02-11T11:21:25.075Z,74.52
2023-02-11T11:23:56.535Z,73.97
2023-02-11T11:26:26.223Z,73.98
2023-02-11T11:29:00.960Z,71.79
2023-02-11T11:31:33.506Z,74.18
2023-02-11T11:34:18.411Z,74.52
2023-02-11T11:36:46.424Z,74.34
2023-02-11T11:39:22.164Z,73.99
2023-02-11T11:41:56.185Z,74.04
2023-02-11T11:44:32.657Z,74.61
2023-02-11T11:47:21.079Z,73.18
2023-02-11T11:49:58.773Z,70.98
2023-02-11T11:52:36.712Z,69.57
2023-02-11T11:55:13.943Z,70.02
2023-02-11T11:57:42.158Z,70.74
2023-02-11T12:00:17.791Z,69.29
2023-02-11T12:03:21.135Z,65.16
2023-02-11T12:06:04.660Z,65.67
2023-02-11T12:08:45.190Z,64.69
2023-02-11T12:11:22.572Z,66.36
2023-02-11T12:14:05.890Z,66.95
2023-02-11T12:16:43.477Z,68.30
2023-02-11T12:19:39.713Z,68.77
2023-02-11T12:22:12.235Z,66.55
2023-02-11T12:25:01.116Z,68.31
2023-02-11T12:27:43.438Z,70.82
2023-02-11T12:30:22.591Z,73.69
2023-02-11T12:32:59.671Z,69.22
2023-02-11T12:35:33.108Z,69.21
2023-02-11T12:38:18.843Z,69.65
2023-02-11T12:40:50.989Z,72.05
2023-02-11T12:43:24.092Z,71.16
2023-02-11T12:46:34.869Z,72.05
2023-02-11T12:49:31.399Z,71.90
2023-02-11T12:52:26.211Z,70.51
2023-02-11T12:55:00.319Z,71.09
2023-02-11T12:57:32.015Z,72.08
2023-02-11T13:00:04.262Z,72.55
2023-02-11T13:02:42.258Z,72.61
2023-02-11T13:05:24.371Z,76.74
2023-02-11T13:07:57.893Z,76.56
2023-02-11T13:10:31.213Z,76.25
2023-02-11T13:13:19.373Z,78.85
2023-02-11T13:15:54.869Z,76.92
2023-02-11T13:18:38.056Z,79.27
2023-02-11T13:21:30.680Z,77.83
2023-02-11T13:24:09.158Z,79.24
2023-02-11T13:26:43.986Z,79.95
2023-02-11T13:29:22.894Z,78.43
2023-02-11T13:31:55.223Z,77.16
2023-02-11T13:34:27.745Z,78.43
2023-02-11T13:36:56.875Z,78.16
2023-02-11T13:39:24.750Z,77.86
2023-02-11T13:42:03.494Z,80.61
2023-02-11T13:44:35.130Z,81.20
2023-02-11T13:47:05.591Z,81.73
2023-02-11T13:49:37.489Z,82.92
2023-02-11T13:52:17.696Z,82.20
2023-02-11T13:54:49.946Z,82.95
2023-02-11T13:57:28.479Z,85.07
2023-02-11T13:59:57.363Z,85.12
2023-02-11T14:02:46.591Z,86.06
2023-02-11T14:05:40.989Z,86.49
2023-02-11T14:08:33.489Z,86.34
2023-02-11T14:11:02.620Z,88.95
2023-02-11T14:13:32.483Z,89.35
2023-02-11T14:16:11.049Z,91.76
2023-02-11T14:19:00.906Z,95.56
2023-02-11T14:21:36.343Z,94.64
2023-02-11T14:24:46.399Z,94.23
2023-02-11T14:27:21.559Z,95.67
2023-02-11T14:30:03.282Z,95.14
2023-02-11T14:32:40.869Z,96.97
2023-02-11T14:35:15.154Z,97.62
2023-02-11T14:37:53.645Z,97.80
2023-02-11T14:40:29.032Z,96.88
2023-02-11T14:42:59.245Z,97.81
2023-02-11T14:45:31.017Z,98.50
2023-02-11T14:48:04.348Z,97.58
2023-02-11T14:50:40.226Z,98.01
2023-02-11T14:53:13.442Z,98.65
2023-02-11T14:55:42.821Z,98.50
2023-02-11T14:58:16.285Z,98.53
2023-02-11T15:00:55.102Z,99.30
2023-02-11T15:03:27.977Z,99.05
2023-02-11T15:05:57.441Z,98.43
2023-02-11T15:08:25.195Z,98.75
2023-02-11T15:10:55.255Z,99.16
2023-02-11T15:13:27.124Z,99.73
2023-02-11T15:16:01.631Z,99.37
2023-02-11T15:18:35.208Z,99.66
2023-02-11T15:21:03.038Z,97.36
2023-02-11T15:23:32.184Z,98.07
2023-02-11T15:26:04.657Z,98.69
2023-02-11T15:28:35.525Z,98.09
2023-02-11T15:31:07.068Z,99.79
2023-02-11T15:33:34.763Z,100.00
2023-02-11T15:36:03.893Z,100.00
2023-02-11T15:38:32.092Z,100.00
2023-02-11T15:41:02.059Z,99.09
2023-02-11T15:43:43.155Z,98.19
2023-02-11T15:46:16.417Z,99.92
2023-02-11T15:48:47.044Z,100.00
2023-02-11T15:51:21.810Z,100.00
2023-02-11T15:53:53.027Z,100.00
2023-02-11T15:56:25.327Z,100.00
2023-02-11T15:58:55.493Z,100.00
2023-02-11T16:01:33.898Z,100.00
2023-02-11T16:04:03.539Z,100.00
2023-02-11T16:06:37.989Z,100.00
2023-02-11T16:09:22.864Z,100.00
2023-02-11T16:11:58.975Z,100.00
2023-02-11T16:14:31.701Z,100.00
2023-02-11T16:17:04.549Z,100.00
2023-02-11T16:19:34.347Z,100.00
2023-02-11T16:22:08.725Z,100.00
2023-02-11T16:24:38.758Z,100.00
2023-02-11T16:27:09.389Z,100.00
2023-02-11T16:29:38.149Z,100.00
2023-02-11T16:32:09.585Z,100.00
2023-02-11T16:34:38.170Z,100.00
2023-02-11T16:37:06.903Z,100.00
2023-02-11T16:39:34.929Z,100.00
2023-02-11T16:42:04.744Z,100.00
2023-02-11T16:44:34.564Z,100.00
2023-02-11T16:47:03.934Z,100.00
2023-02-11T16:49:36.793Z,100.00
2023-02-11T16:52:10.117Z,100.00
2023-02-11T16:54:37.696Z,100.00
2023-02-11T16:57:10.151Z,100.00
2023-02-11T16:59:37.751Z,100.00
2023-02-11T17:02:05.550Z,100.00
2023-02-11T17:04:34.813Z,100.00
2023-02-11T17:07:02.491Z,100.00
2023-02-11T17:09:31.202Z,100.00
2023-02-11T17:11:59.176Z,100.00
2023-02-11T17:14:26.963Z,100.00
2023-02-11T17:16:54.574Z,100.00
2023-02-11T17:19:22.242Z,100.00
2023-02-11T17:21:53.402Z,100.00
2023-02-11T17:24:22.156Z,100.00
2023-02-11T17:26:50.740Z,100.00
2023-02-11T17:29:20.539Z,100.00
2023-02-11T17:31:48.835Z,100.00
2023-02-11T17:34:17.752Z,100.00
2023-02-11T17:36:45.439Z,100.00
2023-02-11T17:39:14.619Z,100.00
2023-02-11T17:41:42.571Z,100.00
2023-02-11T17:44:14.030Z,100.00
2023-02-11T17:46:41.743Z,100.00
2023-02-11T17:49:09.935Z,100.00
2023-02-11T17:51:39.564Z,100.00
2023-02-11T17:54:09.786Z,100.00
2023-02-11T17:56:38.965Z,100.00
2023-02-11T17:59:08.264Z,100.00
2023-02-11T18:01:37.679Z,100.00
2023-02-11T18:04:06.972Z,100.00
2023-02-11T18:06:35.192Z,100.00
2023-02-11T18:09:04.262Z,100.00
2023-02-11T18:11:34.354Z,100.00
2023-02-11T18:14:04.592Z,100.00
2023-02-11T18:16:34.911Z,100.00
2023-02-11T18:19:03.754Z,100.00
2023-02-11T18:21:31.527Z,100.00
2023-02-11T18:24:05.803Z,100.00
2023-02-11T18:26:33.974Z,100.00
2023-02-11T18:29:03.784Z,100.00
2023-02-11T18:31:31.543Z,100.00
2023-02-11T18:33:59.308Z,100.00
2023-02-11T18:36:27.045Z,100.00
2023-02-11T18:38:54.746Z,100.00
2023-02-11T18:41:22.671Z,100.00
2023-02-11T18:43:50.599Z,100.00
2023-02-11T18:46:20.272Z,100.00
2023-02-11T18:48:49.235Z,100.00
2023-02-11T18:51:19.229Z,100.00
2023-02-11T18:53:47.093Z,100.00
2023-02-11T18:56:16.756Z,100.00
2023-02-11T18:58:44.443Z,100.00
2023-02-11T19:01:14.637Z,100.00
2023-02-11T19:03:43.748Z,100.00
2023-02-11T19:06:15.939Z,100.00
2023-02-11T19:08:43.691Z,100.00
2023-02-11T19:11:11.521Z,100.00
2023-02-11T19:13:40.027Z,100.00
2023-02-11T19:16:11.297Z,100.00
2023-02-11T19:18:39.216Z,100.00
2023-02-11T19:21:12.768Z,100.00
2023-02-11T19:23:41.078Z,100.00
2023-02-11T19:26:08.994Z,100.00
2023-02-11T19:28:37.351Z,100.00
2023-02-11T19:31:09.631Z,100.00
2023-02-11T19:33:37.519Z,100.00
2023-02-11T19:36:07.058Z,100.00
2023-02-11T19:38:36.761Z,100.00
2023-02-11T19:41:04.999Z,100.00
2023-02-11T19:43:32.719Z,100.00
2023-02-11T19:46:02.646Z,100.00
2023-02-11T19:48:30.928Z,100.00
2023-02-11T19:50:58.953Z,100.00
2023-02-11T19:53:26.652Z,100.00
2023-02-11T19:55:55.587Z,100.00
2023-02-11T19:58:23.215Z,100.00
2023-02-11T20:00:50.873Z,100.00
2023-02-11T20:03:18.540Z,100.00
2023-02-11T20:05:47.715Z,100.00
2023-02-11T20:08:17.027Z,100.00
2023-02-11T20:10:44.899Z,100.00
2023-02-11T20:13:14.093Z,100.00
2023-02-11T20:15:41.912Z,100.00
2023-02-11T20:18:09.589Z,100.00
2023-02-11T20:20:39.130Z,100.00
2023-02-11T20:23:06.740Z,100.00
2023-02-11T20:25:34.607Z,100.00
2023-02-11T20:28:02.358Z,100.00
2023-02-11T20:30:31.371Z,100.00
2023-02-11T20:32:59.414Z,100.00
2023-02-11T20:35:27.089Z,100.00
2023-02-11T20:37:54.769Z,100.00
2023-02-11T20:40:22.423Z,100.00
2023-02-11T20:42:50.269Z,100.00
2023-02-11T20:45:18.101Z,100.00
2023-02-11T20:47:47.181Z,100.00
2023-02-11T20:50:14.883Z,100.00
2023-02-11T20:52:42.586Z,100.00
2023-02-11T20:55:10.209Z,100.00
2023-02-11T20:57:37.807Z,100.00
2023-02-11T21:00:06.318Z,100.00
2023-02-11T21:02:34.123Z,100.00
2023-02-11T21:05:03.228Z,100.00
2023-02-11T21:07:31.334Z,100.00
2023-02-11T21:09:58.946Z,100.00
2023-02-11T21:12:26.657Z,100.00
2023-02-11T21:14:54.836Z,100.00
2023-02-11T21:17:22.472Z,100.00
2023-02-11T21:19:50.134Z,100.00
2023-02-11T21:22:19.124Z,100.00
2023-02-11T21:24:46.763Z,100.00
2023-02-11T21:27:14.438Z,100.00
2023-02-11T21:29:53.501Z,100.00
2023-02-11T21:32:22.024Z,100.00
2023-02-11T21:34:49.662Z,100.00
2023-02-11T21:37:18.678Z,100.00
2023-02-11T21:39:46.328Z,100.00
2023-02-11T21:42:14.032Z,100.00
2023-02-11T21:44:41.706Z,100.00
2023-02-11T21:47:09.307Z,100.00
2023-02-11T21:49:37.109Z,100.00
2023-02-11T21:52:05.245Z,100.00
2023-02-11T21:54:34.234Z,100.00
2023-02-11T21:57:03.011Z,100.00
2023-02-11T21:59:31.646Z,100.00
2023-02-11T22:01:59.748Z,100.00
2023-02-11T22:04:27.781Z,100.00
2023-02-11T22:06:55.444Z,100.00
2023-02-11T22:09:23.081Z,100.00
2023-02-11T22:11:52.997Z,100.00
2023-02-11T22:14:20.712Z,100.00
2023-02-11T22:16:48.902Z,100.00
2023-02-11T22:19:17.240Z,100.00
2023-02-11T22:21:44.927Z,100.00
2023-02-11T22:24:12.560Z,100.00
2023-02-11T22:26:40.376Z,100.00
2023-02-11T22:29:09.420Z,100.00
2023-02-11T22:31:37.363Z,100.00
2023-02-11T22:34:06.480Z,100.00
2023-02-11T22:36:36.373Z,100.00
2023-02-11T22:39:06.859Z,100.00
2023-02-11T22:41:34.992Z,100.00
2023-02-11T22:44:02.655Z,100.00
2023-02-11T22:46:31.695Z,100.00
2023-02-11T22:48:59.374Z,100.00
2023-02-11T22:51:29.084Z,100.00
2023-02-11T22:53:58.398Z,100.00
2023-02-11T22:56:27.451Z,100.00
2023-02-11T22:58:58.889Z,100.00
2023-02-11T23:01:26.997Z,100.00
2023-02-11T23:03:56.230Z,100.00
2023-02-11T23:06:23.967Z,100.00
2023-02-11T23:08:51.613Z,100.00
2023-02-11T23:11:21.701Z,100.00
2023-02-11T23:13:50.951Z,100.00
2023-02-11T23:16:21.158Z,100.00
2023-02-11T23:18:50.003Z,100.00
2023-02-11T23:21:22.611Z,100.00
2023-02-11T23:23:55.883Z,100.00
2023-02-11T23:26:23.723Z,100.00
2023-02-11T23:28:51.669Z,100.00
2023-02-11T23:31:23.053Z,100.00
2023-02-11T23:33:51.409Z,100.00
2023-02-11T23:36:21.799Z,100.00
2023-02-11T23:38:50.048Z,100.00
2023-02-11T23:41:17.969Z,100.00
2023-02-11T23:43:50.424Z,100.00
2023-02-11T23:46:18.212Z,100.00
2023-02-11T23:48:46.044Z,100.00
2023-02-11T23:51:13.685Z,100.00
2023-02-11T23:53:42.736Z,100.00
2023-02-11T23:56:14.069Z,100.00
2023-02-11T23:58:41.779Z,100.00
